sensor_id;sensor_type;location;lat;lon;timestamp;temperature;humidity
18880;DHT22;9572;52.378;13.404;2022-12-18T00:02:01;-4.70;99.90
18880;DHT22;9572;52.378;13.404;2022-12-18T00:04:29;-4.80;99.90
18880;DHT22;9572;52.378;13.404;2022-12-18T00:06:56;-4.80;99.90
18880;DHT22;9572;52.378;13.404;2022-12-18T00:09:24;-4.70;99.90
18880;DHT22;9572;52.378;13.404;2022-12-18T00:11:51;-4.60;99.90
18880;DHT22;9572;52.378;13.404;2022-12-18T00:14:19;-4.70;99.90
18880;DHT22;9572;52.378;13.404;2022-12-18T00:16:46;-4.70;99.90
18880;DHT22;9572;52.378;13.404;2022-12-18T00:19:14;-4.70;99.90
18880;DHT22;9572;52.378;13.404;2022-12-18T00:21:41;-4.70;99.90
18880;DHT22;9572;52.378;13.404;2022-12-18T00:24:09;-4.70;99.90
18880;DHT22;9572;52.378;13.404;2022-12-18T00:26:37;-4.70;99.90
18880;DHT22;9572;52.378;13.404;2022-12-18T00:29:06;-4.90;99.90
18880;DHT22;9572;52.378;13.404;2022-12-18T00:31:35;-4.90;99.90
18880;DHT22;9572;52.378;13.404;2022-12-18T00:34:02;-5.00;99.90
18880;DHT22;9572;52.378;13.404;2022-12-18T00:36:31;-5.00;99.90
18880;DHT22;9572;52.378;13.404;2022-12-18T00:38:59;-4.90;99.90
18880;DHT22;9572;52.378;13.404;2022-12-18T00:41:27;-5.00;99.90
18880;DHT22;9572;52.378;13.404;2022-12-18T00:44:13;-5.10;99.90
18880;DHT22;9572;52.378;13.404;2022-12-18T00:46:42;-5.20;99.90
18880;DHT22;9572;52.378;13.404;2022-12-18T00:49:09;-5.30;99.90
18880;DHT22;9572;52.378;13.404;2022-12-18T00:51:36;-5.30;99.90
18880;DHT22;9572;52.378;13.404;2022-12-18T00:54:03;-5.30;99.90
18880;DHT22;9572;52.378;13.404;2022-12-18T00:56:30;-5.10;99.90
18880;DHT22;9572;52.378;13.404;2022-12-18T00:58:57;-5.10;99.90
18880;DHT22;9572;52.378;13.404;2022-12-18T01:01:24;-5.10;99.90
18880;DHT22;9572;52.378;13.404;2022-12-18T01:03:53;-5.20;99.90
18880;DHT22;9572;52.378;13.404;2022-12-18T01:06:19;-5.20;99.90
18880;DHT22;9572;52.378;13.404;2022-12-18T01:08:46;-5.00;99.90
18880;DHT22;9572;52.378;13.404;2022-12-18T01:11:16;-4.90;99.90
18880;DHT22;9572;52.378;13.404;2022-12-18T01:13:43;-4.70;99.90
18880;DHT22;9572;52.378;13.404;2022-12-18T01:16:12;-4.70;99.90
18880;DHT22;9572;52.378;13.404;2022-12-18T01:18:39;-4.70;99.90
18880;DHT22;9572;52.378;13.404;2022-12-18T01:21:09;-4.80;99.90
18880;DHT22;9572;52.378;13.404;2022-12-18T01:23:36;-4.90;99.90
18880;DHT22;9572;52.378;13.404;2022-12-18T01:26:07;-5.00;99.90
18880;DHT22;9572;52.378;13.404;2022-12-18T01:28:34;-5.00;99.90
18880;DHT22;9572;52.378;13.404;2022-12-18T01:31:13;-5.10;99.90
18880;DHT22;9572;52.378;13.404;2022-12-18T01:33:40;-5.20;99.90
18880;DHT22;9572;52.378;13.404;2022-12-18T01:36:13;-5.20;99.90
18880;DHT22;9572;52.378;13.404;2022-12-18T01:38:40;-5.20;99.90
18880;DHT22;9572;52.378;13.404;2022-12-18T01:41:08;-5.00;99.90
18880;DHT22;9572;52.378;13.404;2022-12-18T01:43:43;-4.90;99.90
18880;DHT22;9572;52.378;13.404;2022-12-18T01:46:10;-4.90;99.90
18880;DHT22;9572;52.378;13.404;2022-12-18T01:48:37;-4.80;99.90
18880;DHT22;9572;52.378;13.404;2022-12-18T01:51:08;-4.90;99.90
18880;DHT22;9572;52.378;13.404;2022-12-18T01:53:36;-5.00;99.90
18880;DHT22;9572;52.378;13.404;2022-12-18T01:56:04;-5.10;99.90
18880;DHT22;9572;52.378;13.404;2022-12-18T01:58:37;-5.30;99.90
18880;DHT22;9572;52.378;13.404;2022-12-18T02:01:06;-5.30;99.90
18880;DHT22;9572;52.378;13.404;2022-12-18T02:03:33;-5.20;99.90
18880;DHT22;9572;52.378;13.404;2022-12-18T02:06:09;-5.20;99.90
18880;DHT22;9572;52.378;13.404;2022-12-18T02:08:45;-5.20;99.90
18880;DHT22;9572;52.378;13.404;2022-12-18T02:11:18;-5.20;99.90
18880;DHT22;9572;52.378;13.404;2022-12-18T02:13:53;-5.10;99.90
18880;DHT22;9572;52.378;13.404;2022-12-18T02:16:27;-5.00;99.90
18880;DHT22;9572;52.378;13.404;2022-12-18T02:18:58;-4.80;99.90
18880;DHT22;9572;52.378;13.404;2022-12-18T02:21:34;-4.80;99.90
18880;DHT22;9572;52.378;13.404;2022-12-18T02:24:17;-4.80;99.90
18880;DHT22;9572;52.378;13.404;2022-12-18T02:26:48;-4.90;99.90
18880;DHT22;9572;52.378;13.404;2022-12-18T02:29:20;-5.10;99.90
18880;DHT22;9572;52.378;13.404;2022-12-18T02:31:52;-5.10;99.90
18880;DHT22;9572;52.378;13.404;2022-12-18T02:34:23;-5.10;99.90
18880;DHT22;9572;52.378;13.404;2022-12-18T02:36:51;-5.00;99.90
18880;DHT22;9572;52.378;13.404;2022-12-18T02:39:21;-4.90;99.90
18880;DHT22;9572;52.378;13.404;2022-12-18T02:41:50;-4.90;99.90
18880;DHT22;9572;52.378;13.404;2022-12-18T02:44:18;-5.00;99.90
18880;DHT22;9572;52.378;13.404;2022-12-18T02:46:48;-5.10;99.90
18880;DHT22;9572;52.378;13.404;2022-12-18T02:49:26;-5.10;99.90
18880;DHT22;9572;52.378;13.404;2022-12-18T02:52:03;-5.10;99.90
18880;DHT22;9572;52.378;13.404;2022-12-18T02:54:41;-5.20;99.90
18880;DHT22;9572;52.378;13.404;2022-12-18T02:57:18;-5.20;99.90
18880;DHT22;9572;52.378;13.404;2022-12-18T02:59:55;-5.30;99.90
18880;DHT22;9572;52.378;13.404;2022-12-18T03:02:26;-5.30;99.90
18880;DHT22;9572;52.378;13.404;2022-12-18T03:05:01;-5.40;99.90
18880;DHT22;9572;52.378;13.404;2022-12-18T03:07:36;-5.30;99.90
18880;DHT22;9572;52.378;13.404;2022-12-18T03:10:07;-5.30;99.90
18880;DHT22;9572;52.378;13.404;2022-12-18T03:12:40;-5.10;99.90
18880;DHT22;9572;52.378;13.404;2022-12-18T03:15:11;-5.10;99.90
18880;DHT22;9572;52.378;13.404;2022-12-18T03:17:42;-5.20;99.90
18880;DHT22;9572;52.378;13.404;2022-12-18T03:20:19;-5.10;99.90
18880;DHT22;9572;52.378;13.404;2022-12-18T03:22:50;-5.20;99.90
18880;DHT22;9572;52.378;13.404;2022-12-18T03:25:19;-5.20;99.90
18880;DHT22;9572;52.378;13.404;2022-12-18T03:27:51;-5.20;99.90
18880;DHT22;9572;52.378;13.404;2022-12-18T03:30:21;-5.30;99.90
18880;DHT22;9572;52.378;13.404;2022-12-18T03:32:50;-5.40;99.90
18880;DHT22;9572;52.378;13.404;2022-12-18T03:35:21;-5.20;99.90
18880;DHT22;9572;52.378;13.404;2022-12-18T03:37:49;-5.30;99.90
18880;DHT22;9572;52.378;13.404;2022-12-18T03:40:17;-5.40;99.90
18880;DHT22;9572;52.378;13.404;2022-12-18T03:42:48;-5.50;99.90
18880;DHT22;9572;52.378;13.404;2022-12-18T03:45:21;-5.40;99.90
18880;DHT22;9572;52.378;13.404;2022-12-18T03:47:59;-5.30;99.90
18880;DHT22;9572;52.378;13.404;2022-12-18T03:50:33;-5.40;99.90
18880;DHT22;9572;52.378;13.404;2022-12-18T03:53:12;-5.50;99.90
18880;DHT22;9572;52.378;13.404;2022-12-18T03:55:42;-5.50;99.90
18880;DHT22;9572;52.378;13.404;2022-12-18T03:58:13;-5.40;99.90
18880;DHT22;9572;52.378;13.404;2022-12-18T04:00:43;-5.50;99.90
18880;DHT22;9572;52.378;13.404;2022-12-18T04:03:11;-5.60;99.90
18880;DHT22;9572;52.378;13.404;2022-12-18T04:05:39;-5.60;99.90
18880;DHT22;9572;52.378;13.404;2022-12-18T04:08:07;-5.60;99.90
18880;DHT22;9572;52.378;13.404;2022-12-18T04:10:34;-5.50;99.90
18880;DHT22;9572;52.378;13.404;2022-12-18T04:13:04;-5.50;99.90
18880;DHT22;9572;52.378;13.404;2022-12-18T04:15:34;-5.40;99.90
18880;DHT22;9572;52.378;13.404;2022-12-18T04:18:02;-5.60;99.90
18880;DHT22;9572;52.378;13.404;2022-12-18T04:20:29;-5.70;99.90
18880;DHT22;9572;52.378;13.404;2022-12-18T04:22:56;-5.80;99.90
18880;DHT22;9572;52.378;13.404;2022-12-18T04:25:23;-5.70;99.90
18880;DHT22;9572;52.378;13.404;2022-12-18T04:27:50;-5.70;99.90
18880;DHT22;9572;52.378;13.404;2022-12-18T04:30:17;-5.50;99.90
18880;DHT22;9572;52.378;13.404;2022-12-18T04:32:46;-5.50;99.90
18880;DHT22;9572;52.378;13.404;2022-12-18T04:35:13;-5.50;99.90
18880;DHT22;9572;52.378;13.404;2022-12-18T04:37:40;-5.60;99.90
18880;DHT22;9572;52.378;13.404;2022-12-18T04:40:08;-5.60;99.90
18880;DHT22;9572;52.378;13.404;2022-12-18T04:42:35;-5.60;99.90
18880;DHT22;9572;52.378;13.404;2022-12-18T04:45:03;-5.60;99.90
18880;DHT22;9572;52.378;13.404;2022-12-18T04:47:30;-5.50;99.90
18880;DHT22;9572;52.378;13.404;2022-12-18T04:49:59;-5.40;99.90
18880;DHT22;9572;52.378;13.404;2022-12-18T04:52:26;-5.30;99.90
18880;DHT22;9572;52.378;13.404;2022-12-18T04:54:53;-5.20;99.90
18880;DHT22;9572;52.378;13.404;2022-12-18T04:57:20;-5.30;99.90
18880;DHT22;9572;52.378;13.404;2022-12-18T04:59:47;-5.50;99.90
18880;DHT22;9572;52.378;13.404;2022-12-18T05:02:14;-5.60;99.90
18880;DHT22;9572;52.378;13.404;2022-12-18T05:04:41;-5.60;99.90
18880;DHT22;9572;52.378;13.404;2022-12-18T05:07:09;-5.70;99.90
18880;DHT22;9572;52.378;13.404;2022-12-18T05:09:36;-5.70;99.90
18880;DHT22;9572;52.378;13.404;2022-12-18T05:12:03;-5.60;99.90
18880;DHT22;9572;52.378;13.404;2022-12-18T05:14:30;-5.50;99.90
18880;DHT22;9572;52.378;13.404;2022-12-18T05:16:57;-5.30;99.90
18880;DHT22;9572;52.378;13.404;2022-12-18T05:19:24;-5.20;99.90
18880;DHT22;9572;52.378;13.404;2022-12-18T05:21:51;-5.20;99.90
18880;DHT22;9572;52.378;13.404;2022-12-18T05:24:20;-5.30;99.90
18880;DHT22;9572;52.378;13.404;2022-12-18T05:26:46;-5.40;99.90
18880;DHT22;9572;52.378;13.404;2022-12-18T05:29:14;-5.40;99.90
18880;DHT22;9572;52.378;13.404;2022-12-18T05:31:41;-5.50;99.90
18880;DHT22;9572;52.378;13.404;2022-12-18T05:34:08;-5.50;99.90
18880;DHT22;9572;52.378;13.404;2022-12-18T05:36:36;-5.50;99.90
18880;DHT22;9572;52.378;13.404;2022-12-18T05:39:04;-5.50;99.90
18880;DHT22;9572;52.378;13.404;2022-12-18T05:41:33;-5.60;99.90
18880;DHT22;9572;52.378;13.404;2022-12-18T05:44:00;-5.60;99.90
18880;DHT22;9572;52.378;13.404;2022-12-18T05:46:27;-5.60;99.90
18880;DHT22;9572;52.378;13.404;2022-12-18T05:48:55;-5.50;99.90
18880;DHT22;9572;52.378;13.404;2022-12-18T05:51:22;-5.40;99.90
18880;DHT22;9572;52.378;13.404;2022-12-18T05:53:49;-5.50;99.90
18880;DHT22;9572;52.378;13.404;2022-12-18T05:56:18;-5.30;99.90
18880;DHT22;9572;52.378;13.404;2022-12-18T05:58:51;-5.30;99.90
18880;DHT22;9572;52.378;13.404;2022-12-18T06:01:20;-5.50;99.90
18880;DHT22;9572;52.378;13.404;2022-12-18T06:03:47;-5.50;99.90
18880;DHT22;9572;52.378;13.404;2022-12-18T06:06:15;-5.50;99.90
18880;DHT22;9572;52.378;13.404;2022-12-18T06:08:42;-5.50;99.90
18880;DHT22;9572;52.378;13.404;2022-12-18T06:11:09;-5.40;99.90
18880;DHT22;9572;52.378;13.404;2022-12-18T06:13:36;-5.50;99.90
18880;DHT22;9572;52.378;13.404;2022-12-18T06:16:05;-5.50;99.90
18880;DHT22;9572;52.378;13.404;2022-12-18T06:18:33;-5.40;99.90
18880;DHT22;9572;52.378;13.404;2022-12-18T06:21:03;-5.30;99.90
18880;DHT22;9572;52.378;13.404;2022-12-18T06:23:30;-5.20;99.90
18880;DHT22;9572;52.378;13.404;2022-12-18T06:25:57;-5.30;99.90
18880;DHT22;9572;52.378;13.404;2022-12-18T06:28:24;-5.30;99.90
18880;DHT22;9572;52.378;13.404;2022-12-18T06:30:50;-5.20;99.90
18880;DHT22;9572;52.378;13.404;2022-12-18T06:33:20;-5.10;99.90
18880;DHT22;9572;52.378;13.404;2022-12-18T06:35:47;-5.10;99.90
18880;DHT22;9572;52.378;13.404;2022-12-18T06:38:14;-5.20;99.90
18880;DHT22;9572;52.378;13.404;2022-12-18T06:40:41;-5.30;99.90
18880;DHT22;9572;52.378;13.404;2022-12-18T06:43:08;-5.40;99.90
18880;DHT22;9572;52.378;13.404;2022-12-18T06:45:35;-5.50;99.90
18880;DHT22;9572;52.378;13.404;2022-12-18T06:48:02;-5.40;99.90
18880;DHT22;9572;52.378;13.404;2022-12-18T06:50:31;-5.40;99.90
18880;DHT22;9572;52.378;13.404;2022-12-18T06:52:58;-5.40;99.90
18880;DHT22;9572;52.378;13.404;2022-12-18T06:55:25;-5.30;99.90
18880;DHT22;9572;52.378;13.404;2022-12-18T06:57:52;-5.10;99.90
18880;DHT22;9572;52.378;13.404;2022-12-18T07:00:19;-5.20;99.90
18880;DHT22;9572;52.378;13.404;2022-12-18T07:02:46;-5.40;99.90
18880;DHT22;9572;52.378;13.404;2022-12-18T07:05:13;-5.50;99.90
18880;DHT22;9572;52.378;13.404;2022-12-18T07:07:41;-5.40;99.90
18880;DHT22;9572;52.378;13.404;2022-12-18T07:10:09;-5.30;99.90
18880;DHT22;9572;52.378;13.404;2022-12-18T07:12:36;-5.10;99.90
18880;DHT22;9572;52.378;13.404;2022-12-18T07:15:04;-5.10;99.90
18880;DHT22;9572;52.378;13.404;2022-12-18T07:17:31;-5.10;99.90
18880;DHT22;9572;52.378;13.404;2022-12-18T07:19:58;-5.20;99.90
18880;DHT22;9572;52.378;13.404;2022-12-18T07:22:25;-5.20;99.90
18880;DHT22;9572;52.378;13.404;2022-12-18T07:24:53;-5.10;99.90
18880;DHT22;9572;52.378;13.404;2022-12-18T07:27:21;-5.10;99.90
18880;DHT22;9572;52.378;13.404;2022-12-18T07:29:48;-5.00;99.90
18880;DHT22;9572;52.378;13.404;2022-12-18T07:32:14;-5.00;99.90
18880;DHT22;9572;52.378;13.404;2022-12-18T07:34:42;-5.10;99.90
18880;DHT22;9572;52.378;13.404;2022-12-18T07:37:09;-5.10;99.90
18880;DHT22;9572;52.378;13.404;2022-12-18T07:39:36;-5.10;99.90
18880;DHT22;9572;52.378;13.404;2022-12-18T07:42:04;-5.00;99.90
18880;DHT22;9572;52.378;13.404;2022-12-18T07:44:49;-5.00;99.90
18880;DHT22;9572;52.378;13.404;2022-12-18T07:47:16;-4.90;99.90
18880;DHT22;9572;52.378;13.404;2022-12-18T07:49:43;-4.90;99.90
18880;DHT22;9572;52.378;13.404;2022-12-18T07:52:10;-4.90;99.90
18880;DHT22;9572;52.378;13.404;2022-12-18T07:54:37;-4.90;99.90
18880;DHT22;9572;52.378;13.404;2022-12-18T07:57:07;-5.00;99.90
18880;DHT22;9572;52.378;13.404;2022-12-18T07:59:34;-5.00;99.90
18880;DHT22;9572;52.378;13.404;2022-12-18T08:02:01;-5.10;99.90
18880;DHT22;9572;52.378;13.404;2022-12-18T08:04:28;-5.20;99.90
18880;DHT22;9572;52.378;13.404;2022-12-18T08:06:55;-5.20;99.90
18880;DHT22;9572;52.378;13.404;2022-12-18T08:09:22;-5.20;99.90
18880;DHT22;9572;52.378;13.404;2022-12-18T08:11:49;-5.10;99.90
18880;DHT22;9572;52.378;13.404;2022-12-18T08:14:18;-5.10;99.90
18880;DHT22;9572;52.378;13.404;2022-12-18T08:16:44;-5.10;99.90
18880;DHT22;9572;52.378;13.404;2022-12-18T08:19:12;-5.10;99.90
18880;DHT22;9572;52.378;13.404;2022-12-18T08:21:39;-5.10;99.90
18880;DHT22;9572;52.378;13.404;2022-12-18T08:24:09;-5.10;99.90
18880;DHT22;9572;52.378;13.404;2022-12-18T08:26:36;-5.10;99.90
18880;DHT22;9572;52.378;13.404;2022-12-18T08:29:03;-5.10;99.90
18880;DHT22;9572;52.378;13.404;2022-12-18T08:31:32;-5.20;99.90
18880;DHT22;9572;52.378;13.404;2022-12-18T08:33:59;-5.10;99.90
18880;DHT22;9572;52.378;13.404;2022-12-18T08:36:26;-5.10;99.90
18880;DHT22;9572;52.378;13.404;2022-12-18T08:38:53;-5.10;99.90
18880;DHT22;9572;52.378;13.404;2022-12-18T08:41:21;-5.20;99.90
18880;DHT22;9572;52.378;13.404;2022-12-18T08:43:48;-5.20;99.90
18880;DHT22;9572;52.378;13.404;2022-12-18T08:46:35;-5.20;99.90
18880;DHT22;9572;52.378;13.404;2022-12-18T08:49:02;-5.20;99.90
18880;DHT22;9572;52.378;13.404;2022-12-18T08:51:29;-5.00;99.90
18880;DHT22;9572;52.378;13.404;2022-12-18T08:53:56;-4.90;99.90
18880;DHT22;9572;52.378;13.404;2022-12-18T08:56:23;-4.80;99.90
18880;DHT22;9572;52.378;13.404;2022-12-18T08:58:52;-4.80;99.90
18880;DHT22;9572;52.378;13.404;2022-12-18T09:01:19;-4.70;99.90
18880;DHT22;9572;52.378;13.404;2022-12-18T09:03:48;-4.60;99.90
18880;DHT22;9572;52.378;13.404;2022-12-18T09:06:17;-4.50;99.90
18880;DHT22;9572;52.378;13.404;2022-12-18T09:08:45;-4.40;99.90
18880;DHT22;9572;52.378;13.404;2022-12-18T09:11:14;-4.50;99.90
18880;DHT22;9572;52.378;13.404;2022-12-18T09:13:41;-4.40;99.90
18880;DHT22;9572;52.378;13.404;2022-12-18T09:16:08;-4.60;99.90
18880;DHT22;9572;52.378;13.404;2022-12-18T09:18:35;-4.60;99.90
18880;DHT22;9572;52.378;13.404;2022-12-18T09:21:09;-4.70;99.90
18880;DHT22;9572;52.378;13.404;2022-12-18T09:23:36;-4.50;99.90
18880;DHT22;9572;52.378;13.404;2022-12-18T09:26:03;-4.60;99.90
18880;DHT22;9572;52.378;13.404;2022-12-18T09:28:30;-4.60;99.90
18880;DHT22;9572;52.378;13.404;2022-12-18T09:30:57;-4.70;99.90
18880;DHT22;9572;52.378;13.404;2022-12-18T09:33:24;-4.70;99.90
18880;DHT22;9572;52.378;13.404;2022-12-18T09:35:51;-4.60;99.90
18880;DHT22;9572;52.378;13.404;2022-12-18T09:38:19;-4.50;99.90
18880;DHT22;9572;52.378;13.404;2022-12-18T09:40:50;-4.40;99.90
18880;DHT22;9572;52.378;13.404;2022-12-18T09:43:20;-4.40;99.90
18880;DHT22;9572;52.378;13.404;2022-12-18T09:45:52;-4.40;99.90
18880;DHT22;9572;52.378;13.404;2022-12-18T09:48:23;-4.40;99.90
18880;DHT22;9572;52.378;13.404;2022-12-18T09:50:54;-4.40;99.90
18880;DHT22;9572;52.378;13.404;2022-12-18T09:53:26;-4.30;99.90
18880;DHT22;9572;52.378;13.404;2022-12-18T09:55:56;-4.20;99.90
18880;DHT22;9572;52.378;13.404;2022-12-18T09:58:28;-4.10;99.90
18880;DHT22;9572;52.378;13.404;2022-12-18T10:00:56;-4.10;99.90
18880;DHT22;9572;52.378;13.404;2022-12-18T10:03:23;-4.00;99.90
18880;DHT22;9572;52.378;13.404;2022-12-18T10:05:59;-3.90;99.90
18880;DHT22;9572;52.378;13.404;2022-12-18T10:08:37;-3.90;99.90
18880;DHT22;9572;52.378;13.404;2022-12-18T10:11:21;-4.00;99.90
18880;DHT22;9572;52.378;13.404;2022-12-18T10:13:53;-4.10;99.90
18880;DHT22;9572;52.378;13.404;2022-12-18T10:16:27;-4.20;99.90
18880;DHT22;9572;52.378;13.404;2022-12-18T10:19:13;-4.10;99.90
18880;DHT22;9572;52.378;13.404;2022-12-18T10:21:51;-4.00;99.90
18880;DHT22;9572;52.378;13.404;2022-12-18T10:24:26;-3.90;99.90
18880;DHT22;9572;52.378;13.404;2022-12-18T10:26:59;-3.80;99.90
18880;DHT22;9572;52.378;13.404;2022-12-18T10:29:31;-3.90;99.90
18880;DHT22;9572;52.378;13.404;2022-12-18T10:31:58;-3.90;99.90
18880;DHT22;9572;52.378;13.404;2022-12-18T10:34:24;-3.80;99.90
18880;DHT22;9572;52.378;13.404;2022-12-18T10:36:51;-3.60;99.90
18880;DHT22;9572;52.378;13.404;2022-12-18T10:39:22;-3.50;99.90
18880;DHT22;9572;52.378;13.404;2022-12-18T10:41:50;-3.50;99.90
18880;DHT22;9572;52.378;13.404;2022-12-18T10:44:19;-3.40;99.90
18880;DHT22;9572;52.378;13.404;2022-12-18T10:46:47;-3.40;99.90
18880;DHT22;9572;52.378;13.404;2022-12-18T10:49:21;-3.40;99.90
18880;DHT22;9572;52.378;13.404;2022-12-18T10:51:49;-3.40;99.90
18880;DHT22;9572;52.378;13.404;2022-12-18T10:54:17;-3.50;99.90
18880;DHT22;9572;52.378;13.404;2022-12-18T10:56:47;-3.50;99.90
18880;DHT22;9572;52.378;13.404;2022-12-18T10:59:15;-3.40;99.90
18880;DHT22;9572;52.378;13.404;2022-12-18T11:01:50;-3.30;99.90
18880;DHT22;9572;52.378;13.404;2022-12-18T11:04:20;-3.30;99.90
18880;DHT22;9572;52.378;13.404;2022-12-18T11:06:56;-3.30;99.90
18880;DHT22;9572;52.378;13.404;2022-12-18T11:09:25;-3.40;99.90
18880;DHT22;9572;52.378;13.404;2022-12-18T11:11:55;-3.40;99.90
18880;DHT22;9572;52.378;13.404;2022-12-18T11:14:24;-3.40;99.90
18880;DHT22;9572;52.378;13.404;2022-12-18T11:16:53;-3.40;99.90
18880;DHT22;9572;52.378;13.404;2022-12-18T11:19:32;-3.30;99.90
18880;DHT22;9572;52.378;13.404;2022-12-18T11:21:59;-3.20;99.90
18880;DHT22;9572;52.378;13.404;2022-12-18T11:24:29;-3.20;99.90
18880;DHT22;9572;52.378;13.404;2022-12-18T11:27:01;-3.20;99.90
18880;DHT22;9572;52.378;13.404;2022-12-18T11:29:32;-3.30;99.90
18880;DHT22;9572;52.378;13.404;2022-12-18T11:35:15;-3.50;99.90
18880;DHT22;9572;52.378;13.404;2022-12-18T11:37:47;-3.40;99.90
18880;DHT22;9572;52.378;13.404;2022-12-18T11:40:18;-3.40;99.90
18880;DHT22;9572;52.378;13.404;2022-12-18T11:42:51;-3.40;99.90
18880;DHT22;9572;52.378;13.404;2022-12-18T11:45:31;-3.40;99.90
18880;DHT22;9572;52.378;13.404;2022-12-18T11:48:04;-3.50;99.90
18880;DHT22;9572;52.378;13.404;2022-12-18T11:50:41;-3.50;99.90
18880;DHT22;9572;52.378;13.404;2022-12-18T11:53:12;-3.50;99.90
18880;DHT22;9572;52.378;13.404;2022-12-18T11:55:43;-3.50;99.90
18880;DHT22;9572;52.378;13.404;2022-12-18T11:58:22;-3.50;99.90
18880;DHT22;9572;52.378;13.404;2022-12-18T12:00:58;-3.50;99.90
18880;DHT22;9572;52.378;13.404;2022-12-18T12:03:52;-3.30;99.90
18880;DHT22;9572;52.378;13.404;2022-12-18T12:06:24;-3.20;99.90
18880;DHT22;9572;52.378;13.404;2022-12-18T12:09:03;-3.00;99.90
18880;DHT22;9572;52.378;13.404;2022-12-18T12:11:38;-3.00;99.90
18880;DHT22;9572;52.378;13.404;2022-12-18T12:14:25;-3.10;99.90
18880;DHT22;9572;52.378;13.404;2022-12-18T12:17:01;-3.20;99.90
18880;DHT22;9572;52.378;13.404;2022-12-18T12:19:39;-3.10;99.90
18880;DHT22;9572;52.378;13.404;2022-12-18T12:22:16;-3.00;99.90
18880;DHT22;9572;52.378;13.404;2022-12-18T12:24:55;-3.00;99.90
18880;DHT22;9572;52.378;13.404;2022-12-18T12:27:30;-3.00;99.90
18880;DHT22;9572;52.378;13.404;2022-12-18T12:30:04;-3.00;99.90
18880;DHT22;9572;52.378;13.404;2022-12-18T12:32:51;-2.80;99.90
18880;DHT22;9572;52.378;13.404;2022-12-18T12:35:29;-2.80;99.90
18880;DHT22;9572;52.378;13.404;2022-12-18T12:38:05;-2.80;99.90
18880;DHT22;9572;52.378;13.404;2022-12-18T12:40:38;-2.70;99.90
18880;DHT22;9572;52.378;13.404;2022-12-18T12:43:22;-2.60;99.90
18880;DHT22;9572;52.378;13.404;2022-12-18T12:45:53;-2.70;99.90
18880;DHT22;9572;52.378;13.404;2022-12-18T12:48:31;-2.80;99.90
18880;DHT22;9572;52.378;13.404;2022-12-18T12:51:00;-2.80;99.90
18880;DHT22;9572;52.378;13.404;2022-12-18T12:53:32;-2.70;99.90
18880;DHT22;9572;52.378;13.404;2022-12-18T12:56:01;-2.80;99.90
18880;DHT22;9572;52.378;13.404;2022-12-18T12:58:33;-2.80;99.90
18880;DHT22;9572;52.378;13.404;2022-12-18T13:01:12;-2.70;99.90
18880;DHT22;9572;52.378;13.404;2022-12-18T13:03:54;-2.90;99.90
18880;DHT22;9572;52.378;13.404;2022-12-18T13:06:32;-2.90;99.90
18880;DHT22;9572;52.378;13.404;2022-12-18T13:09:00;-2.90;99.90
18880;DHT22;9572;52.378;13.404;2022-12-18T13:11:35;-3.00;99.90
18880;DHT22;9572;52.378;13.404;2022-12-18T13:14:23;-3.10;99.90
18880;DHT22;9572;52.378;13.404;2022-12-18T13:16:52;-3.10;99.90
18880;DHT22;9572;52.378;13.404;2022-12-18T13:19:39;-3.20;99.90
18880;DHT22;9572;52.378;13.404;2022-12-18T13:22:21;-3.10;99.90
18880;DHT22;9572;52.378;13.404;2022-12-18T13:24:48;-3.10;99.90
18880;DHT22;9572;52.378;13.404;2022-12-18T13:27:46;-3.10;99.90
18880;DHT22;9572;52.378;13.404;2022-12-18T13:30:44;-3.10;99.90
18880;DHT22;9572;52.378;13.404;2022-12-18T13:33:40;-3.20;99.90
18880;DHT22;9572;52.378;13.404;2022-12-18T13:36:15;-3.20;99.90
18880;DHT22;9572;52.378;13.404;2022-12-18T13:38:42;-3.20;99.90
18880;DHT22;9572;52.378;13.404;2022-12-18T13:41:24;-3.20;99.90
18880;DHT22;9572;52.378;13.404;2022-12-18T13:43:52;-3.30;99.90
18880;DHT22;9572;52.378;13.404;2022-12-18T13:46:22;-3.20;99.90
18880;DHT22;9572;52.378;13.404;2022-12-18T13:48:57;-3.20;99.90
18880;DHT22;9572;52.378;13.404;2022-12-18T13:51:25;-3.20;99.90
18880;DHT22;9572;52.378;13.404;2022-12-18T13:53:55;-3.20;99.90
18880;DHT22;9572;52.378;13.404;2022-12-18T13:56:25;-3.30;99.90
18880;DHT22;9572;52.378;13.404;2022-12-18T13:59:16;-3.30;99.90
18880;DHT22;9572;52.378;13.404;2022-12-18T14:01:45;-3.30;99.90
18880;DHT22;9572;52.378;13.404;2022-12-18T14:04:19;-3.30;99.90
18880;DHT22;9572;52.378;13.404;2022-12-18T14:06:47;-3.30;99.90
18880;DHT22;9572;52.378;13.404;2022-12-18T14:09:17;-3.30;99.90
18880;DHT22;9572;52.378;13.404;2022-12-18T14:11:47;-3.30;99.90
18880;DHT22;9572;52.378;13.404;2022-12-18T14:14:15;-3.20;99.90
18880;DHT22;9572;52.378;13.404;2022-12-18T14:16:43;-3.20;99.90
18880;DHT22;9572;52.378;13.404;2022-12-18T14:19:14;-3.30;99.90
18880;DHT22;9572;52.378;13.404;2022-12-18T14:21:46;-3.30;99.90
18880;DHT22;9572;52.378;13.404;2022-12-18T14:24:15;-3.30;99.90
18880;DHT22;9572;52.378;13.404;2022-12-18T14:26:43;-3.40;99.90
18880;DHT22;9572;52.378;13.404;2022-12-18T14:29:22;-3.30;99.90
18880;DHT22;9572;52.378;13.404;2022-12-18T14:32:11;-3.40;99.90
18880;DHT22;9572;52.378;13.404;2022-12-18T14:34:41;-3.30;99.90
18880;DHT22;9572;52.378;13.404;2022-12-18T14:37:09;-3.30;99.90
18880;DHT22;9572;52.378;13.404;2022-12-18T14:39:37;-3.40;99.90
18880;DHT22;9572;52.378;13.404;2022-12-18T14:42:10;-3.40;99.90
18880;DHT22;9572;52.378;13.404;2022-12-18T14:44:38;-3.30;99.90
18880;DHT22;9572;52.378;13.404;2022-12-18T14:47:14;-3.40;99.90
18880;DHT22;9572;52.378;13.404;2022-12-18T14:49:43;-3.40;99.90
18880;DHT22;9572;52.378;13.404;2022-12-18T14:52:23;-3.40;99.90
18880;DHT22;9572;52.378;13.404;2022-12-18T14:54:59;-3.50;99.90
18880;DHT22;9572;52.378;13.404;2022-12-18T14:57:32;-3.50;99.90
18880;DHT22;9572;52.378;13.404;2022-12-18T15:00:05;-3.50;99.90
18880;DHT22;9572;52.378;13.404;2022-12-18T15:02:39;-3.60;99.90
18880;DHT22;9572;52.378;13.404;2022-12-18T15:05:18;-3.60;99.90
18880;DHT22;9572;52.378;13.404;2022-12-18T15:07:49;-3.60;99.90
18880;DHT22;9572;52.378;13.404;2022-12-18T15:10:19;-3.60;99.90
18880;DHT22;9572;52.378;13.404;2022-12-18T15:12:50;-3.60;99.90
18880;DHT22;9572;52.378;13.404;2022-12-18T15:15:47;-3.60;99.90
18880;DHT22;9572;52.378;13.404;2022-12-18T15:18:20;-3.70;99.90
18880;DHT22;9572;52.378;13.404;2022-12-18T15:20:53;-3.80;99.90
18880;DHT22;9572;52.378;13.404;2022-12-18T15:23:30;-3.70;99.90
18880;DHT22;9572;52.378;13.404;2022-12-18T15:26:00;-3.60;99.90
18880;DHT22;9572;52.378;13.404;2022-12-18T15:28:32;-3.60;99.90
18880;DHT22;9572;52.378;13.404;2022-12-18T15:31:05;-3.60;99.90
18880;DHT22;9572;52.378;13.404;2022-12-18T15:33:41;-3.60;99.90
18880;DHT22;9572;52.378;13.404;2022-12-18T15:36:23;-3.60;99.90
18880;DHT22;9572;52.378;13.404;2022-12-18T15:38:55;-3.60;99.90
18880;DHT22;9572;52.378;13.404;2022-12-18T15:41:31;-3.70;99.90
18880;DHT22;9572;52.378;13.404;2022-12-18T15:44:30;-3.70;99.90
18880;DHT22;9572;52.378;13.404;2022-12-18T15:47:02;-3.80;99.90
18880;DHT22;9572;52.378;13.404;2022-12-18T15:49:30;-3.70;99.90
18880;DHT22;9572;52.378;13.404;2022-12-18T15:52:03;-3.60;99.90
18880;DHT22;9572;52.378;13.404;2022-12-18T15:54:30;-3.60;99.90
18880;DHT22;9572;52.378;13.404;2022-12-18T15:57:14;-3.70;99.90